Time;durP1;ratioP1;P1;durP2;ratioP2;P2;SDS_P1;SDS_P2;PMS_P1;PMS_P2;Temp;Humidity;BMP_temperature;BMP_pressure;BME280_temperature;BME280_humidity;BME280_pressure;Samples;Min_cycle;Max_cycle;Signal;HPM_P1;HPM_P2
2022/04/27 00:01:40;;;;;;;;;;;7.60;99.90;;;;;;5123387;27;20047;-67
2022/04/27 00:04:06;;;;;;;49.22;29.33;;;7.50;99.90;;;;;;5107018;28;19926;-67
2022/04/27 00:06:31;;;;;;;53.03;30.98;;;7.60;99.90;;;;;;5104062;28;20089;-68
2022/04/27 00:08:57;;;;;;;;;;;7.60;99.90;;;;;;5105595;28;20517;-67
2022/04/27 00:11:23;;;;;;;53.13;29.70;;;7.60;99.90;;;;;;5103197;28;19953;-67
2022/04/27 00:13:48;;;;;;;58.30;35.75;;;7.70;99.90;;;;;;5102478;28;20043;-68
2022/04/27 00:16:14;;;;;;;52.38;31.45;;;7.60;99.90;;;;;;5104703;28;20054;-68
2022/04/27 00:18:40;;;;;;;;;;;7.60;99.90;;;;;;5090469;28;20043;-67
2022/04/27 00:21:05;;;;;;;46.00;29.48;;;7.60;99.90;;;;;;5092298;28;20649;-67
2022/04/27 00:23:32;;;;;;;54.03;32.25;;;7.60;99.90;;;;;;5081584;28;20404;-67
2022/04/27 00:25:58;;;;;;;48.42;29.58;;;7.50;99.90;;;;;;5092099;28;20147;-67
2022/04/27 00:28:24;;;;;;;;;;;7.50;99.90;;;;;;5088341;28;20123;-67
2022/04/27 00:30:49;;;;;;;48.75;29.38;;;7.40;99.90;;;;;;5090939;28;19915;-66
2022/04/27 00:33:15;;;;;;;51.47;30.48;;;7.20;99.90;;;;;;5087864;28;20036;-68
2022/04/27 00:35:41;;;;;;;52.40;31.33;;;7.20;99.90;;;;;;5090175;28;20046;-67
2022/04/27 00:38:06;;;;;;;49.17;32.00;;;7.10;99.90;;;;;;5087312;28;20070;-67
2022/04/27 00:40:32;;;;;;;49.63;30.10;;;7.00;99.90;;;;;;5087250;28;20028;-67
2022/04/27 00:42:58;;;;;;;43.80;26.88;;;7.00;99.90;;;;;;5079078;28;20484;-67
2022/04/27 00:45:24;;;;;;;;;;;7.00;99.90;;;;;;5094224;28;20047;-67
2022/04/27 00:47:49;;;;;;;41.85;25.00;;;6.90;99.90;;;;;;5107891;28;19923;-67
2022/04/27 00:50:15;;;;;;;;;;;6.90;99.90;;;;;;5104293;28;20032;-66
2022/04/27 00:52:41;;;;;;;42.17;26.17;;;6.80;99.90;;;;;;5093867;28;20310;-67
2022/04/27 00:55:07;;;;;;;40.97;26.38;;;6.80;99.90;;;;;;5092192;28;20042;-67
2022/04/27 00:57:33;;;;;;;;;;;6.80;99.90;;;;;;5108804;28;20081;-67
2022/04/27 00:59:58;;;;;;;48.13;26.57;;;6.80;99.90;;;;;;5103291;28;19965;-67
2022/04/27 01:02:24;;;;;;;40.28;25.05;;;6.70;99.90;;;;;;5100571;28;20048;-67
2022/04/27 01:04:50;;;;;;;;;;;6.70;99.90;;;;;;5091678;28;20801;-67
2022/04/27 01:07:16;;;;;;;41.45;23.17;;;6.70;99.90;;;;;;5088311;28;20272;-67
2022/04/27 01:09:42;;;;;;;37.75;23.95;;;6.70;99.90;;;;;;5091187;28;20410;-67
2022/04/27 01:12:08;;;;;;;;;;;6.70;99.90;;;;;;5090581;28;20044;-67
2022/04/27 01:14:44;;;;;;;35.10;21.70;;;6.60;99.90;;;;;;5087063;28;19922;-67
2022/04/27 01:17:10;;;;;;;37.63;23.17;;;6.50;99.90;;;;;;5100148;28;20063;-67
2022/04/27 01:19:36;;;;;;;40.42;23.75;;;6.50;99.90;;;;;;5107577;28;20074;-67
2022/04/27 01:22:03;;;;;;;35.63;22.73;;;6.50;99.90;;;;;;5094690;28;20036;-68
2022/04/27 01:24:29;;;;;;;36.00;23.40;;;6.40;99.90;;;;;;5086862;28;20126;-68
2022/04/27 01:26:54;;;;;;;35.53;21.50;;;6.40;99.90;;;;;;5090875;28;20120;-67
2022/04/27 01:29:22;;;;;;;35.80;22.40;;;6.40;99.90;;;;;;5085821;28;20041;-67
2022/04/27 01:31:49;;;;;;;35.08;22.42;;;6.30;99.90;;;;;;5096649;28;20661;-67
2022/04/27 01:34:15;;;;;;;35.90;22.63;;;6.20;99.90;;;;;;5105619;28;20475;-68
2022/04/27 01:36:41;;;;;;;31.25;20.52;;;6.20;99.90;;;;;;5102113;28;20047;-66
2022/04/27 01:39:07;;;;;;;34.25;20.48;;;6.20;99.90;;;;;;5086684;28;20673;-66
2022/04/27 01:41:33;;;;;;;35.22;20.55;;;6.20;99.90;;;;;;5090475;28;20596;-67
2022/04/27 01:43:59;;;;;;;35.95;21.38;;;6.10;99.90;;;;;;5086823;28;20043;-66
2022/04/27 01:46:26;;;;;;;33.92;21.25;;;6.10;99.90;;;;;;5090065;28;20128;-66
2022/04/27 01:48:51;;;;;;;33.72;20.30;;;6.10;99.90;;;;;;5086945;28;20039;-66
2022/04/27 01:51:18;;;;;;;33.95;21.58;;;6.00;99.90;;;;;;5088476;28;20124;-67
2022/04/27 01:56:31;;;;;;;31.85;19.83;;;5.90;99.90;;;;;;5087891;28;20044;-66
2022/04/27 01:58:57;;;;;;;40.63;22.23;;;5.80;99.90;;;;;;5086192;28;20055;-66
2022/04/27 02:01:25;;;;;;;;;;;5.80;99.90;;;;;;5089089;28;20126;-67
2022/04/27 02:03:51;;;;;;;29.92;19.85;;;5.80;99.90;;;;;;5089339;28;19916;-68
2022/04/27 02:06:19;;;;;;;29.85;19.90;;;5.80;99.90;;;;;;5089618;28;20039;-66
2022/04/27 02:08:45;;;;;;;31.30;19.67;;;5.70;99.90;;;;;;5086185;28;20048;-67
2022/04/27 02:11:11;;;;;;;30.73;19.60;;;5.70;99.90;;;;;;5090073;28;20042;-67
2022/04/27 02:13:37;;;;;;;38.00;22.10;;;5.70;99.90;;;;;;5084906;28;20036;-67
2022/04/27 02:16:02;;;;;;;;;;;5.70;99.90;;;;;;5085389;28;20522;-66
2022/04/27 02:18:28;;;;;;;32.47;19.90;;;5.70;99.90;;;;;;5105275;28;19915;-67
2022/04/27 02:20:56;;;;;;;32.28;19.80;;;5.70;99.90;;;;;;5103346;28;20670;-67
2022/04/27 02:23:22;;;;;;;35.47;21.05;;;5.70;99.90;;;;;;5088959;28;20044;-67
2022/04/27 02:25:48;;;;;;;31.17;19.13;;;5.60;99.90;;;;;;5085810;28;20068;-67
2022/04/27 02:28:14;;;;;;;34.35;19.83;;;5.60;99.90;;;;;;5089673;28;20043;-66
2022/04/27 02:30:40;;;;;;;32.47;19.42;;;5.60;99.90;;;;;;5084778;28;20040;-66
2022/04/27 02:33:05;;;;;;;34.13;20.20;;;5.60;99.90;;;;;;5089576;28;20519;-66
2022/04/27 02:35:31;;;;;;;;;;;5.60;99.90;;;;;;5082710;28;20097;-67
2022/04/27 02:37:56;;;;;;;30.98;18.45;;;5.70;99.90;;;;;;5088257;28;19920;-67
2022/04/27 02:40:22;;;;;;;;;;;5.60;99.90;;;;;;5085687;28;20637;-67
2022/04/27 02:42:49;;;;;;;31.70;19.17;;;5.50;99.90;;;;;;5091492;28;20036;-66
2022/04/27 02:45:15;;;;;;;35.80;20.38;;;5.50;99.90;;;;;;5086757;28;20048;-67
2022/04/27 02:47:40;;;;;;;32.55;20.98;;;5.50;99.90;;;;;;5089893;28;20043;-66
2022/04/27 02:52:50;;;;;;;36.90;19.05;;;5.50;99.90;;;;;;5087563;28;19916;-67
2022/04/27 02:55:16;;;;;;;30.17;17.30;;;5.50;99.90;;;;;;5085210;28;20047;-68
2022/04/27 02:57:41;;;;;;;;;;;5.60;99.90;;;;;;5090343;28;20135;-66
2022/04/27 03:00:08;;;;;;;28.75;19.10;;;5.60;99.90;;;;;;5085552;28;19927;-67
2022/04/27 03:02:33;;;;;;;31.20;20.05;;;5.60;99.90;;;;;;5094052;28;20044;-67
2022/04/27 03:05:00;;;;;;;30.63;18.23;;;5.60;99.90;;;;;;5103897;28;20131;-67
2022/04/27 03:07:28;;;;;;;41.58;21.48;;;5.60;99.90;;;;;;5101276;28;20048;-67
2022/04/27 03:09:53;;;;;;;34.25;20.70;;;5.70;99.90;;;;;;5106198;28;20115;-67
2022/04/27 03:12:19;;;;;;;29.05;17.98;;;5.60;99.90;;;;;;5099983;28;20127;-67
2022/04/27 03:14:45;;;;;;;;;;;5.60;99.90;;;;;;5106471;28;20508;-67
2022/04/27 03:17:10;;;;;;;33.30;19.05;;;5.70;99.90;;;;;;5102228;28;20560;-66
2022/04/27 03:19:37;;;;;;;31.52;20.23;;;5.70;99.90;;;;;;5106357;28;20035;-67
2022/04/27 03:22:03;;;;;;;33.65;21.70;;;5.80;99.90;;;;;;5098563;28;20036;-66
2022/04/27 03:24:28;;;;;;;35.83;21.13;;;5.80;99.90;;;;;;5090979;28;20073;-66
2022/04/27 03:26:54;;;;;;;36.72;21.17;;;5.90;99.90;;;;;;5085820;28;20044;-66
2022/04/27 03:29:20;;;;;;;36.83;23.23;;;5.90;99.90;;;;;;5085413;28;20028;-67
2022/04/27 03:31:45;;;;;;;;;;;5.90;99.90;;;;;;5083799;28;20478;-67
2022/04/27 03:34:11;;;;;;;33.38;20.83;;;5.90;99.90;;;;;;5099585;28;19916;-66
2022/04/27 03:36:36;;;;;;;38.67;22.88;;;6.00;99.90;;;;;;5105567;28;20051;-67
2022/04/27 03:39:02;;;;;;;;;;;6.00;99.90;;;;;;5097527;28;20118;-67
2022/04/27 03:41:28;;;;;;;34.15;19.80;;;5.90;99.90;;;;;;5084883;28;20007;-67
2022/04/27 03:43:54;;;;;;;40.45;21.90;;;5.90;99.90;;;;;;5088960;28;20039;-66
2022/04/27 03:46:20;;;;;;;38.25;24.05;;;5.90;99.90;;;;;;5085093;28;20044;-67
2022/04/27 03:48:46;;;;;;;35.70;22.17;;;5.80;99.90;;;;;;5090519;28;20047;-67
2022/04/27 03:51:12;;;;;;;35.20;21.05;;;5.80;99.90;;;;;;5083949;28;20044;-67
2022/04/27 03:53:38;;;;;;;31.75;20.90;;;5.80;99.90;;;;;;5086346;28;20098;-67
2022/04/27 03:56:04;;;;;;;33.58;20.17;;;5.80;99.90;;;;;;5089450;28;20155;-66
2022/04/27 03:58:30;;;;;;;48.38;23.98;;;5.80;99.90;;;;;;5093773;28;20372;-66
2022/04/27 04:00:55;;;;;;;35.83;21.52;;;5.80;99.90;;;;;;5107253;28;20105;-67
2022/04/27 04:03:21;;;;;;;;;;;5.80;99.90;;;;;;5100661;28;20080;-67
2022/04/27 04:05:46;;;;;;;33.80;20.85;;;5.80;99.90;;;;;;5088599;28;19924;-66
2022/04/27 04:08:12;;;;;;;;;;;5.80;99.90;;;;;;5093627;28;20036;-67
2022/04/27 04:10:37;;;;;;;57.05;24.13;;;5.80;99.90;;;;;;5088743;28;20536;-66
2022/04/27 04:13:03;;;;;;;50.05;24.45;;;5.80;99.90;;;;;;5092079;28;20058;-66
2022/04/27 04:15:28;;;;;;;58.08;25.52;;;5.80;99.90;;;;;;5088576;28;20028;-66
2022/04/27 04:17:54;;;;;;;51.20;24.23;;;5.70;99.90;;;;;;5089944;28;20079;-67
2022/04/27 04:20:20;;;;;;;74.28;26.77;;;5.60;99.90;;;;;;5091274;28;20032;-67
2022/04/27 04:22:47;;;;;;;45.80;25.63;;;5.50;99.90;;;;;;5081948;28;20101;-67
2022/04/27 04:30:42;;;;;;;37.45;22.42;;;5.60;99.90;;;;;;5090139;28;20032;-66
2022/04/27 04:33:08;;;;;;;39.42;23.45;;;5.70;99.90;;;;;;5085999;28;20165;-68
2022/04/27 04:35:34;;;;;;;39.90;22.98;;;5.70;99.90;;;;;;5091638;28;20038;-67
2022/04/27 04:38:00;;;;;;;35.20;21.48;;;5.80;99.90;;;;;;5086436;28;20079;-66
2022/04/27 04:40:25;;;;;;;30.80;18.70;;;5.80;99.90;;;;;;5087718;28;20121;-68
2022/04/27 04:42:52;;;;;;;31.77;18.83;;;5.80;99.90;;;;;;5087668;28;20043;-68
2022/04/27 04:45:18;;;;;;;31.15;19.65;;;5.90;99.90;;;;;;5092164;28;20039;-66
2022/04/27 04:47:43;;;;;;;35.13;20.63;;;6.10;99.90;;;;;;5086670;28;20081;-65
2022/04/27 04:50:09;;;;;;;;;;;6.40;99.90;;;;;;5092849;28;20412;-68
2022/04/27 04:52:35;;;;;;;35.92;20.55;;;6.60;99.90;;;;;;5081639;28;20018;-69
2022/04/27 04:55:01;;;;;;;;;;;7.00;99.90;;;;;;5091771;28;20127;-64
2022/04/27 04:57:26;;;;;;;31.95;19.77;;;7.30;99.90;;;;;;5089162;28;20449;-65
2022/04/27 04:59:52;;;;;;;;;;;7.60;99.90;;;;;;5090205;28;20040;-65
2022/04/27 05:02:17;;;;;;;33.58;21.08;;;7.80;99.90;;;;;;5085240;28;20505;-66
2022/04/27 05:04:43;;;;;;;;;;;8.00;99.90;;;;;;5087906;28;20520;-65
2022/04/27 05:07:09;;;;;;;29.83;18.88;;;8.10;99.90;;;;;;5087130;28;19955;-64
2022/04/27 05:09:34;;;;;;;;;;;8.00;99.90;;;;;;5095080;28;20039;-68
2022/04/27 05:12:00;;;;;;;27.85;17.73;;;7.60;99.90;;;;;;5106389;28;19915;-66
2022/04/27 05:14:25;;;;;;;29.80;16.77;;;7.60;99.90;;;;;;5091282;28;20411;-66
2022/04/27 05:16:51;;;;;;;;;;;7.60;99.90;;;;;;5088133;28;20231;-65
2022/04/27 05:19:16;;;;;;;30.80;17.38;;;7.50;99.90;;;;;;5091973;28;19915;-66
2022/04/27 05:21:42;;;;;;;;;;;7.50;99.90;;;;;;5082881;28;20408;-66
2022/04/27 05:24:07;;;;;;;28.02;15.98;;;7.40;99.90;;;;;;5086088;28;20333;-65
2022/04/27 05:26:33;;;;;;;;;;;7.20;99.90;;;;;;5106720;28;20105;-66
2022/04/27 05:31:55;;;;;;;32.10;17.67;;;7.10;99.90;;;;;;5091348;28;20052;-66
2022/04/27 05:34:22;;;;;;;29.50;18.33;;;7.30;99.90;;;;;;5085802;28;20086;-66
2022/04/27 05:36:48;;;;;;;27.95;17.60;;;8.00;99.90;;;;;;5089708;28;20137;-65
2022/04/27 05:39:13;;;;;;;;;;;8.50;99.90;;;;;;5089885;28;20449;-67
2022/04/27 05:41:39;;;;;;;28.23;17.52;;;8.90;99.90;;;;;;5087212;28;19919;-65
2022/04/27 05:44:09;;;;;;;;;;;9.60;99.90;;;;;;5086996;28;20451;-66
2022/04/27 05:46:40;;;;;;;23.33;14.77;;;10.30;99.90;;;;;;5092534;28;20031;-66
2022/04/27 05:49:06;;;;;;;31.50;15.75;;;10.40;99.90;;;;;;5085244;28;20068;-66
2022/04/27 05:51:32;;;;;;;;;;;10.20;99.90;;;;;;5084424;28;20068;-65
2022/04/27 05:53:58;;;;;;;22.55;13.77;;;10.70;99.90;;;;;;5081785;28;20006;-67
2022/04/27 05:56:24;;;;;;;20.23;14.25;;;11.00;99.90;;;;;;5086503;28;20123;-67
2022/04/27 05:58:51;;;;;;;23.55;13.85;;;10.60;99.90;;;;;;5085166;28;20081;-65
2022/04/27 06:01:18;;;;;;;24.80;13.88;;;10.50;99.90;;;;;;5084576;28;20036;-67
2022/04/27 06:03:44;;;;;;;19.30;13.40;;;10.70;99.90;;;;;;5084894;28;20043;-67
2022/04/27 06:06:09;;;;;;;;;;;10.50;99.90;;;;;;5088578;28;20040;-67
2022/04/27 06:08:35;;;;;;;21.50;12.25;;;10.80;99.90;;;;;;5084731;28;20375;-67
2022/04/27 06:11:01;;;;;;;;;;;11.60;99.90;;;;;;5088963;28;20032;-67
2022/04/27 06:13:26;;;;;;;12.93;9.40;;;12.10;99.90;;;;;;5083519;28;19919;-67
2022/04/27 06:15:52;;;;;;;;;;;12.60;99.90;;;;;;5092712;28;20074;-67
2022/04/27 06:18:17;;;;;;;16.67;10.60;;;13.00;98.40;;;;;;5105938;28;20579;-66
2022/04/27 06:20:43;;;;;;;;;;;12.50;99.20;;;;;;5085124;28;20066;-66
2022/04/27 06:23:09;;;;;;;15.30;9.20;;;12.00;99.90;;;;;;5085533;28;19962;-66
2022/04/27 06:25:35;;;;;;;;;;;11.80;99.90;;;;;;5086343;28;20036;-66
2022/04/27 06:28:02;;;;;;;18.38;9.07;;;12.20;99.90;;;;;;5085675;28;20575;-66
2022/04/27 06:30:27;;;;;;;14.95;8.00;;;13.20;97.20;;;;;;5085271;28;20075;-66
2022/04/27 06:32:53;;;;;;;;;;;14.20;95.00;;;;;;5089013;28;20798;-65
2022/04/27 06:35:18;;;;;;;12.75;7.22;;;15.10;95.60;;;;;;5085523;28;19916;-66
2022/04/27 06:37:45;;;;;;;15.73;7.50;;;15.20;93.70;;;;;;5086638;28;20044;-66
2022/04/27 06:40:11;;;;;;;13.25;6.80;;;14.80;93.70;;;;;;5084900;28;20036;-66
2022/04/27 06:42:42;;;;;;;9.50;6.78;;;14.20;94.50;;;;;;5086125;27;20040;-65
2022/04/27 06:45:08;;;;;;;11.15;6.03;;;14.50;95.60;;;;;;5083285;28;20036;-67
2022/04/27 06:47:34;;;;;;;11.20;6.07;;;14.20;94.50;;;;;;5086977;28;20061;-66
2022/04/27 06:49:59;;;;;;;;;;;14.00;93.90;;;;;;5085098;28;20036;-66
2022/04/27 06:52:25;;;;;;;8.20;5.35;;;13.80;94.80;;;;;;5082033;28;20523;-65
2022/04/27 06:54:51;;;;;;;7.25;5.20;;;14.30;94.70;;;;;;5083754;28;20557;-65
2022/04/27 06:57:16;;;;;;;11.93;5.93;;;14.80;93.50;;;;;;5088925;28;20048;-67
2022/04/27 06:59:42;;;;;;;8.82;5.22;;;15.10;93.30;;;;;;5087818;28;20042;-66
2022/04/27 07:02:10;;;;;;;8.70;4.40;;;15.10;92.40;;;;;;5088533;28;20048;-65
2022/04/27 07:04:36;;;;;;;8.05;4.78;;;16.30;91.60;;;;;;5085083;28;20044;-66
2022/04/27 07:07:03;;;;;;;8.20;5.35;;;16.50;90.40;;;;;;5089246;28;20036;-65
2022/04/27 07:09:30;;;;;;;9.45;6.03;;;15.30;89.40;;;;;;5085438;28;20040;-65
2022/04/27 07:11:56;;;;;;;8.13;4.97;;;14.60;92.30;;;;;;5088899;28;20046;-65
2022/04/27 07:14:22;;;;;;;;;;;14.20;93.60;;;;;;5085656;28;20040;-66
2022/04/27 07:16:47;;;;;;;13.90;5.63;;;14.40;91.00;;;;;;5089604;28;19924;-65
2022/04/27 07:19:13;;;;;;;;;;;13.90;93.00;;;;;;5085753;28;20800;-65
2022/04/27 07:21:39;;;;;;;14.00;6.75;;;13.60;94.40;;;;;;5092066;28;19915;-64
2022/04/27 07:24:06;;;;;;;12.73;6.43;;;13.50;92.90;;;;;;5085564;28;20154;-65
2022/04/27 07:26:32;;;;;;;16.48;7.00;;;12.80;93.60;;;;;;5089492;28;20710;-65
2022/04/27 07:28:58;;;;;;;;;;;12.20;95.90;;;;;;5089130;28;20043;-65
2022/04/27 07:31:24;;;;;;;13.32;6.20;;;12.10;97.20;;;;;;5092725;28;19920;-67
2022/04/27 07:33:50;;;;;;;11.98;6.22;;;12.70;96.50;;;;;;5089192;28;20036;-65
2022/04/27 07:36:16;;;;;;;;;;;13.20;94.90;;;;;;5089337;28;20044;-65
2022/04/27 07:38:42;;;;;;;10.43;6.53;;;13.50;94.90;;;;;;5089211;28;19980;-65
2022/04/27 07:41:07;;;;;;;;;;;13.80;94.20;;;;;;5092192;28;20040;-66
2022/04/27 07:43:33;;;;;;;16.23;7.40;;;13.60;95.30;;;;;;5092358;28;19916;-65
2022/04/27 07:45:59;;;;;;;12.48;6.25;;;13.80;94.10;;;;;;5089032;28;20047;-66
2022/04/27 07:48:25;;;;;;;;;;;14.10;93.90;;;;;;5093732;28;20143;-67
2022/04/27 07:50:50;;;;;;;7.88;5.80;;;14.40;92.90;;;;;;5088471;28;19967;-65
2022/04/27 07:53:16;;;;;;;9.57;6.57;;;14.30;92.90;;;;;;5093937;28;20510;-65
2022/04/27 07:55:42;;;;;;;13.20;7.40;;;15.30;92.20;;;;;;5089867;28;20040;-66
2022/04/27 07:58:07;;;;;;;8.18;5.93;;;16.10;91.10;;;;;;5094234;28;20112;-65
2022/04/27 08:00:33;;;;;;;10.88;5.93;;;16.80;87.60;;;;;;5086948;28;20093;-66
2022/04/27 08:02:59;;;;;;;9.02;6.00;;;17.60;84.00;;;;;;5100931;28;20114;-66
2022/04/27 08:05:25;;;;;;;10.73;6.45;;;18.50;79.90;;;;;;5108902;28;20065;-66
2022/04/27 08:07:50;;;;;;;9.82;6.13;;;18.90;78.80;;;;;;5104551;28;20046;-67
2022/04/27 08:10:18;;;;;;;11.45;5.55;;;19.10;78.40;;;;;;5107767;28;20040;-67
2022/04/27 08:12:49;;;;;;;9.30;6.32;;;19.60;73.40;;;;;;5104839;28;20111;-67
2022/04/27 08:15:16;;;;;;;10.52;6.22;;;20.20;70.70;;;;;;5108406;28;20599;-66
2022/04/27 08:17:59;;;;;;;7.97;5.85;;;19.70;74.00;;;;;;5104222;28;20467;-66
2022/04/27 08:23:21;;;;;;;11.55;6.38;;;19.60;69.40;;;;;;5095512;28;20036;-67
2022/04/27 08:25:48;;;;;;;7.97;6.13;;;19.60;74.50;;;;;;5097455;28;20051;-66
2022/04/27 08:28:16;;;;;;;12.80;6.80;;;20.20;67.10;;;;;;5103437;28;20092;-67
2022/04/27 08:30:44;;;;;;;9.88;6.35;;;20.70;68.10;;;;;;5098667;28;20096;-67
2022/04/27 08:33:11;;;;;;;9.45;5.82;;;20.40;64.50;;;;;;5104628;28;20030;-66
2022/04/27 08:35:44;;;;;;;11.15;6.30;;;21.20;66.30;;;;;;5099642;28;20052;-66
2022/04/27 08:38:10;;;;;;;10.23;6.93;;;20.80;63.30;;;;;;5105444;28;20032;-65
2022/04/27 08:40:43;;;;;;;10.85;6.28;;;20.50;64.70;;;;;;5099091;28;20040;-67
2022/04/27 08:43:10;;;;;;;12.57;6.63;;;20.70;68.40;;;;;;5104031;28;20047;-66
2022/04/27 08:45:38;;;;;;;14.43;8.40;;;19.70;68.20;;;;;;5102508;28;20073;-67
2022/04/27 08:48:05;;;;;;;13.68;8.63;;;18.70;71.10;;;;;;5104295;28;20036;-66
2022/04/27 08:50:31;;;;;;;13.98;8.00;;;17.20;74.30;;;;;;5101956;28;20496;-65
2022/04/27 08:52:57;;;;;;;10.63;7.13;;;16.20;78.70;;;;;;5105094;28;20065;-65
2022/04/27 08:55:28;;;;;;;13.25;7.07;;;15.80;85.30;;;;;;5100608;28;20803;-64
2022/04/27 08:58:05;;;;;;;13.52;8.32;;;15.20;86.60;;;;;;5104806;28;20523;-64
2022/04/27 09:00:31;;;;;;;19.90;9.05;;;14.40;89.90;;;;;;5099080;28;20044;-65
2022/04/27 09:03:40;;;;;;;21.80;9.15;;;14.10;88.80;;;;;;5102570;28;20032;-65
2022/04/27 09:06:08;;;;;;;15.98;9.00;;;13.60;91.10;;;;;;5102567;28;20060;-66
2022/04/27 09:08:37;;;;;;;19.30;9.55;;;13.90;92.60;;;;;;5103435;28;20039;-65
2022/04/27 09:11:19;;;;;;;14.98;9.50;;;13.70;91.30;;;;;;5106219;28;20097;-65
2022/04/27 09:14:02;;;;;;;18.35;8.63;;;13.60;93.10;;;;;;5095598;28;20058;-66
2022/04/27 09:22:07;;;;;;;13.27;9.02;;;13.60;93.60;;;;;;5081731;28;20040;-65
2022/04/27 09:24:52;;;;;;;;;;;14.00;92.70;;;;;;5092123;28;20055;-65
2022/04/27 09:27:18;;;;;;;18.52;9.13;;;14.10;92.50;;;;;;5087474;28;19967;-66
2022/04/27 09:29:54;;;;;;;16.15;8.93;;;13.80;92.80;;;;;;5091062;28;20495;-65
2022/04/27 09:32:19;;;;;;;12.10;9.50;;;13.70;92.70;;;;;;5086227;28;20040;-64
2022/04/27 09:34:46;;;;;;;;;;;13.70;95.20;;;;;;5089726;28;20645;-65
2022/04/27 09:37:14;;;;;;;14.75;8.20;;;13.30;95.40;;;;;;5086417;28;19916;-64
2022/04/27 09:39:40;;;;;;;14.15;8.13;;;13.30;95.10;;;;;;5084795;28;20040;-65
2022/04/27 09:42:10;;;;;;;17.00;9.15;;;13.40;95.70;;;;;;5088709;28;20495;-64
2022/04/27 09:44:37;;;;;;;16.75;9.00;;;13.60;94.20;;;;;;5090749;28;20051;-64
2022/04/27 09:47:04;;;;;;;18.40;8.77;;;13.80;94.80;;;;;;5086517;28;20656;-66
2022/04/27 09:49:31;;;;;;;12.05;8.32;;;14.00;93.40;;;;;;5090290;28;20469;-64
2022/04/27 09:51:58;;;;;;;12.85;8.63;;;14.10;93.30;;;;;;5080094;28;20189;-64
2022/04/27 09:54:28;;;;;;;15.18;9.20;;;14.30;95.50;;;;;;5090952;28;20039;-65
2022/04/27 09:56:56;;;;;;;10.00;8.10;;;14.10;94.70;;;;;;5087322;28;20044;-64
2022/04/27 09:59:29;;;;;;;11.45;8.15;;;13.80;94.20;;;;;;5090638;28;20054;-65
2022/04/27 10:01:57;;;;;;;15.50;9.25;;;13.90;95.50;;;;;;5084992;28;20327;-64
2022/04/27 10:04:26;;;;;;;17.23;8.52;;;13.70;95.20;;;;;;5090408;28;20039;-64
2022/04/27 10:06:52;;;;;;;16.65;9.23;;;13.80;94.50;;;;;;5086344;28;20114;-64
2022/04/27 10:09:18;;;;;;;14.45;8.75;;;14.20;96.30;;;;;;5090672;28;20452;-64
2022/04/27 10:11:44;;;;;;;;;;;14.20;97.30;;;;;;5086275;28;20075;-66
2022/04/27 10:14:11;;;;;;;14.85;9.20;;;14.30;95.90;;;;;;5085941;28;19920;-64
2022/04/27 10:16:37;;;;;;;15.15;8.15;;;13.90;93.80;;;;;;5086874;28;20047;-65
2022/04/27 10:19:07;;;;;;;;;;;13.90;92.30;;;;;;5086875;28;20036;-65
2022/04/27 10:21:56;;;;;;;13.55;9.02;;;14.30;93.70;;;;;;5103315;28;19916;-66
2022/04/27 10:24:33;;;;;;;13.93;8.63;;;14.40;95.50;;;;;;5080767;28;20420;-65
2022/04/27 10:27:18;;;;;;;13.30;9.43;;;14.50;94.30;;;;;;5106821;28;20047;-65
2022/04/27 10:29:46;;;;;;;14.27;8.00;;;14.60;92.60;;;;;;5102523;27;20036;-66
2022/04/27 10:32:11;;;;;;;17.60;9.00;;;14.60;93.70;;;;;;5105905;28;20043;-65
2022/04/27 10:34:37;;;;;;;;;;;14.70;94.00;;;;;;5102243;28;20043;-65
2022/04/27 10:37:03;;;;;;;14.95;9.18;;;14.70;95.40;;;;;;5095628;28;19927;-65
2022/04/27 10:39:29;;;;;;;;;;;14.20;94.70;;;;;;5089174;28;20071;-65
2022/04/27 10:42:04;;;;;;;16.23;9.88;;;14.20;94.20;;;;;;5085288;28;19997;-65
2022/04/27 10:44:50;;;;;;;15.88;9.13;;;14.30;94.80;;;;;;5088847;28;20036;-66
2022/04/27 10:47:20;;;;;;;17.23;8.65;;;14.50;94.50;;;;;;5065690;28;20092;-65
2022/04/27 10:49:47;;;;;;;16.00;9.45;;;14.50;93.50;;;;;;5075039;28;20044;-65
2022/04/27 10:52:14;;;;;;;17.48;10.27;;;14.60;96.30;;;;;;5081852;28;20040;-65
2022/04/27 10:54:41;;;;;;;12.43;7.75;;;15.00;94.70;;;;;;5085524;28;20036;-66
2022/04/27 10:57:15;;;;;;;14.30;9.05;;;14.90;92.90;;;;;;5084740;28;20078;-65
2022/04/27 10:59:47;;;;;;;12.75;8.32;;;14.70;92.40;;;;;;5088160;28;20792;-65
2022/04/27 11:02:39;;;;;;;17.35;9.40;;;14.70;93.10;;;;;;5081312;28;20032;-65
2022/04/27 11:05:21;;;;;;;13.63;8.45;;;14.40;94.10;;;;;;5081170;28;20507;-66
2022/04/27 11:08:01;;;;;;;13.88;9.40;;;14.40;94.00;;;;;;5088101;28;20051;-66
2022/04/27 11:10:27;;;;;;;14.60;9.82;;;14.50;93.50;;;;;;5082093;28;20047;-66
2022/04/27 11:12:56;;;;;;;16.23;9.15;;;14.80;95.60;;;;;;5085219;28;20068;-66
2022/04/27 11:15:26;;;;;;;14.85;9.20;;;14.70;93.50;;;;;;5086936;28;20043;-66
2022/04/27 11:18:01;;;;;;;15.73;9.70;;;14.60;92.30;;;;;;5085741;28;20055;-66
2022/04/27 11:20:36;;;;;;;19.20;9.95;;;14.60;93.30;;;;;;5088508;28;20047;-65
2022/04/27 11:23:07;;;;;;;15.98;8.85;;;14.90;93.10;;;;;;5082259;28;20055;-66
2022/04/27 11:25:38;;;;;;;17.08;9.02;;;14.90;94.40;;;;;;5085001;28;20048;-67
2022/04/27 11:28:06;;;;;;;12.00;9.18;;;14.80;93.20;;;;;;5085999;28;20073;-66
2022/04/27 11:30:32;;;;;;;16.08;10.13;;;14.50;92.50;;;;;;5085469;28;20103;-67
2022/04/27 11:33:00;;;;;;;17.45;8.13;;;14.40;92.80;;;;;;5090666;28;20040;-66
2022/04/27 11:35:44;;;;;;;14.15;8.18;;;14.60;95.40;;;;;;5081929;28;20055;-66
2022/04/27 11:38:16;;;;;;;13.68;8.77;;;14.60;93.20;;;;;;5083528;28;20096;-64
2022/04/27 11:40:41;;;;;;;14.55;9.70;;;14.90;92.80;;;;;;5085596;28;20759;-67
2022/04/27 11:43:07;;;;;;;;;;;14.90;93.30;;;;;;5085398;28;20032;-65
2022/04/27 11:45:33;;;;;;;16.50;10.02;;;14.80;92.30;;;;;;5087792;28;19976;-66
2022/04/27 11:48:01;;;;;;;13.57;9.45;;;14.90;94.60;;;;;;5084598;28;20129;-64
2022/04/27 11:50:33;;;;;;;17.13;9.80;;;14.50;92.00;;;;;;5086277;28;20511;-66
2022/04/27 11:53:13;;;;;;;17.27;9.50;;;14.20;94.50;;;;;;5086393;28;20052;-65
2022/04/27 11:55:40;;;;;;;13.00;8.35;;;14.00;93.80;;;;;;5085965;28;20403;-65
2022/04/27 11:58:07;;;;;;;14.68;8.77;;;14.10;95.00;;;;;;5086504;28;20075;-66
2022/04/27 12:00:34;;;;;;;12.75;8.93;;;14.10;94.80;;;;;;5086646;28;20062;-66
2022/04/27 12:03:07;;;;;;;17.55;9.57;;;14.10;94.60;;;;;;5084211;28;20420;-65
2022/04/27 12:05:33;;;;;;;14.07;9.50;;;14.20;93.60;;;;;;5086425;28;20055;-67
2022/04/27 12:08:02;;;;;;;16.73;10.15;;;14.20;93.40;;;;;;5085526;28;20115;-64
2022/04/27 12:10:29;;;;;;;15.75;9.75;;;14.10;94.30;;;;;;5084296;28;20028;-66
2022/04/27 12:12:59;;;;;;;16.17;8.80;;;13.90;93.70;;;;;;5081751;28;20378;-67
2022/04/27 12:15:28;;;;;;;17.83;9.10;;;13.90;94.20;;;;;;5088584;28;20067;-65
2022/04/27 12:17:57;;;;;;;15.63;9.43;;;14.00;93.60;;;;;;5092450;28;20519;-66
2022/04/27 12:20:40;;;;;;;19.13;9.15;;;14.30;94.10;;;;;;5089170;28;20656;-71
2022/04/27 12:23:16;;;;;;;16.30;9.20;;;14.10;93.80;;;;;;5091044;28;20058;-66
2022/04/27 12:25:43;;;;;;;16.48;11.10;;;13.80;93.90;;;;;;5088978;28;20515;-65
2022/04/27 12:28:15;;;;;;;18.42;9.55;;;13.50;94.40;;;;;;5092078;28;20044;-66
2022/04/27 12:30:48;;;;;;;15.85;9.68;;;13.30;95.70;;;;;;5087339;28;20039;-64
2022/04/27 12:33:18;;;;;;;21.00;9.35;;;13.40;96.80;;;;;;5093694;28;20104;-65
2022/04/27 12:38:30;;;;;;;18.02;9.73;;;13.80;95.30;;;;;;5089452;28;20040;-66
2022/04/27 12:40:58;;;;;;;13.68;8.90;;;13.80;94.90;;;;;;5088014;28;20692;-64
2022/04/27 12:43:25;;;;;;;12.43;8.85;;;13.80;95.70;;;;;;5103653;28;20039;-66
2022/04/27 12:46:09;;;;;;;14.52;9.30;;;13.90;94.70;;;;;;5107526;28;20036;-66
2022/04/27 12:48:35;;;;;;;16.55;8.52;;;13.90;93.70;;;;;;5083827;28;20055;-66
2022/04/27 12:51:03;;;;;;;17.92;8.95;;;14.20;93.80;;;;;;5087598;28;20042;-64
2022/04/27 12:53:29;;;;;;;14.57;9.10;;;14.40;93.70;;;;;;5087195;28;20071;-65
2022/04/27 12:56:04;;;;;;;;;;;14.70;93.00;;;;;;5087923;28;20063;-67
2022/04/27 12:58:31;;;;;;;15.38;9.40;;;14.90;92.70;;;;;;5091150;28;19916;-64
2022/04/27 13:00:57;;;;;;;17.20;8.80;;;15.30;92.50;;;;;;5085526;28;20036;-65
2022/04/27 13:03:23;;;;;;;;;;;15.70;93.70;;;;;;5101197;28;20050;-65
2022/04/27 13:05:50;;;;;;;22.85;9.73;;;15.60;92.70;;;;;;5107785;27;20443;-66
2022/04/27 13:08:17;;;;;;;13.20;8.25;;;15.60;92.40;;;;;;5094296;28;20112;-65
2022/04/27 13:13:29;;;;;;;14.85;9.65;;;15.20;92.30;;;;;;5094168;28;20032;-66
2022/04/27 13:15:55;;;;;;;16.52;9.48;;;14.50;92.80;;;;;;5087480;28;20047;-64
2022/04/27 13:18:22;;;;;;;13.48;9.65;;;14.00;93.30;;;;;;5091749;28;20120;-66
2022/04/27 13:20:50;;;;;;;18.55;9.95;;;13.40;94.20;;;;;;5087218;28;20462;-65
2022/04/27 13:23:16;;;;;;;15.88;9.48;;;13.30;95.90;;;;;;5090145;28;20483;-66